Time,TemperatureF,DewpointF,PressureIn,WindDirection,WindDirectionDegrees,WindSpeedMPH,WindSpeedGustMPH,Humidity,HourlyPrecipIn,Conditions,Clouds,dailyrainin,SoftwareType,DateUTC
2013-03-21 00:00:00,27.8,12.9,30.07,NW,307,2.0,2.0,53,0.00,,,0.00,Wunderground v.1.15,2013-03-21 04:00:00,
2013-03-21 00:10:00,27.5,11.7,30.07,North,5,3.0,3.0,51,0.00,,,0.00,Wunderground v.1.15,2013-03-21 04:10:00,
2013-03-21 00:19:00,27.4,11.6,30.07,North,350,3.0,3.0,51,0.00,,,0.00,Wunderground v.1.15,2013-03-21 04:19:00,
2013-03-21 00:29:00,27.2,11.9,30.07,NW,326,3.0,7.0,52,0.00,,,0.00,Wunderground v.1.15,2013-03-21 04:29:00,
2013-03-21 00:40:00,27.1,11.8,30.07,NW,311,2.0,3.0,52,0.00,,,0.00,Wunderground v.1.15,2013-03-21 04:40:00,
2013-03-21 00:50:00,26.9,11.2,30.07,WNW,292,3.0,6.0,51,0.00,,,0.00,Wunderground v.1.15,2013-03-21 04:50:00,
2013-03-21 01:00:00,26.7,11.0,30.07,NW,325,2.0,2.0,51,0.00,,,0.00,Wunderground v.1.15,2013-03-21 05:00:00,
2013-03-21 01:09:00,26.5,11.7,30.06,NNW,344,3.0,3.0,53,0.00,,,0.00,Wunderground v.1.15,2013-03-21 05:09:00,
2013-03-21 01:20:00,26.5,12.1,30.06,North,360,1.0,1.0,54,0.00,,,0.00,Wunderground v.1.15,2013-03-21 05:20:00,
2013-03-21 01:30:00,26.4,12.0,30.06,NW,320,1.0,2.0,54,0.00,,,0.00,Wunderground v.1.15,2013-03-21 05:30:00,
2013-03-21 01:39:00,26.2,12.2,30.06,NNW,333,1.0,1.0,55,0.00,,,0.00,Wunderground v.1.15,2013-03-21 05:39:00,
2013-03-21 01:49:00,26.0,12.4,30.06,North,350,2.0,2.0,56,0.00,,,0.00,Wunderground v.1.15,2013-03-21 05:49:00,
2013-03-21 02:00:00,25.8,13.0,30.06,NE,34,3.0,3.0,58,0.00,,,0.00,Wunderground v.1.15,2013-03-21 06:00:00,
2013-03-21 02:10:00,25.7,12.6,30.06,NW,322,2.0,5.0,57,0.00,,,0.00,Wunderground v.1.15,2013-03-21 06:10:00,
2013-03-21 02:19:00,25.4,11.9,30.05,NW,314,3.0,3.0,56,0.00,,,0.00,Wunderground v.1.15,2013-03-21 06:19:00,
2013-03-21 02:29:00,25.3,11.8,30.06,NW,312,2.0,3.0,56,0.00,,,0.00,Wunderground v.1.15,2013-03-21 06:29:00,
2013-03-21 02:39:00,25.2,12.5,30.06,WNW,300,2.0,2.0,58,0.00,,,0.00,Wunderground v.1.15,2013-03-21 06:39:00,
2013-03-21 02:50:00,25.2,12.5,30.06,NNW,340,1.0,2.0,58,0.00,,,0.00,Wunderground v.1.15,2013-03-21 06:50:00,
2013-03-21 03:00:00,25.0,11.5,30.05,North,350,1.0,2.0,56,0.00,,,0.00,Wunderground v.1.15,2013-03-21 07:00:00,
2013-03-21 03:09:00,24.9,12.6,30.05,North,350,1.0,1.0,59,0.00,,,0.00,Wunderground v.1.15,2013-03-21 07:09:00,
2013-03-21 03:20:00,24.9,12.2,30.05,NNW,345,1.0,2.0,58,0.00,,,0.00,Wunderground v.1.15,2013-03-21 07:20:00,
2013-03-21 03:30:00,24.9,13.0,30.05,North,5,1.0,1.0,60,0.00,,,0.00,Wunderground v.1.15,2013-03-21 07:30:00,
2013-03-21 03:39:00,24.8,12.5,30.05,North,5,0.0,0.0,59,0.00,,,0.00,Wunderground v.1.15,2013-03-21 07:39:00,
2013-03-21 03:49:00,24.7,13.1,30.04,NNW,334,0.0,0.0,61,0.00,,,0.00,Wunderground v.1.15,2013-03-21 07:49:00,
2013-03-21 04:00:00,24.4,13.2,30.04,NW,312,1.0,2.0,62,0.00,,,0.00,Wunderground v.1.15,2013-03-21 08:00:00,
2013-03-21 04:09:00,24.2,13.0,30.04,NW,319,1.0,1.0,62,0.00,,,0.00,Wunderground v.1.15,2013-03-21 08:09:00,
2013-03-21 04:19:00,24.1,12.9,30.03,North,350,1.0,1.0,62,0.00,,,0.00,Wunderground v.1.15,2013-03-21 08:19:00,
2013-03-21 04:29:00,23.9,13.5,30.03,NW,325,1.0,1.0,64,0.00,,,0.00,Wunderground v.1.15,2013-03-21 08:29:00,
2013-03-21 04:40:00,23.8,13.4,30.03,NNW,337,0.0,0.0,64,0.00,,,0.00,Wunderground v.1.15,2013-03-21 08:40:00,
2013-03-21 04:49:00,23.6,13.2,30.03,NNW,338,1.0,1.0,64,0.00,,,0.00,Wunderground v.1.15,2013-03-21 08:49:00,
2013-03-21 05:00:00,23.4,13.0,30.03,NNW,331,1.0,2.0,64,0.00,,,0.00,Wunderground v.1.15,2013-03-21 09:00:00,
2013-03-21 05:10:00,23.2,12.8,30.03,NNW,333,2.0,2.0,64,0.00,,,0.00,Wunderground v.1.15,2013-03-21 09:10:00,
2013-03-21 05:19:00,23.1,13.4,30.02,WNW,295,1.0,3.0,66,0.00,,,0.00,Wunderground v.1.15,2013-03-21 09:19:00,
2013-03-21 05:29:00,23.1,12.7,30.02,NW,319,1.0,1.0,64,0.00,,,0.00,Wunderground v.1.15,2013-03-21 09:29:00,
2013-03-21 05:39:00,23.1,13.1,30.02,NW,319,0.0,0.0,65,0.00,,,0.00,Wunderground v.1.15,2013-03-21 09:39:00,
2013-03-21 05:50:00,23.0,13.3,30.02,NNW,348,1.0,3.0,66,0.00,,,0.00,Wunderground v.1.15,2013-03-21 09:50:00,
2013-03-21 06:00:00,22.7,12.3,30.02,NNW,338,1.0,2.0,64,0.00,,,0.00,Wunderground v.1.15,2013-03-21 10:00:00,
2013-03-21 06:09:00,22.4,12.1,30.03,NW,323,2.0,2.0,64,0.00,,,0.00,Wunderground v.1.15,2013-03-21 10:09:00,
2013-03-21 06:19:00,22.2,12.6,30.03,NW,316,1.0,2.0,66,0.00,,,0.00,Wunderground v.1.15,2013-03-21 10:19:00,
2013-03-21 06:30:00,22.1,12.5,30.03,NNW,337,1.0,1.0,66,0.00,,,0.00,Wunderground v.1.15,2013-03-21 10:30:00,
2013-03-21 06:40:00,22.2,12.9,30.03,NNW,337,1.0,1.0,67,0.00,,,0.00,Wunderground v.1.15,2013-03-21 10:40:00,
2013-03-21 06:49:00,22.2,12.9,30.03,NNW,340,1.0,1.0,67,0.00,,,0.00,Wunderground v.1.15,2013-03-21 10:49:00,
2013-03-21 07:00:00,22.1,13.5,30.04,North,9,1.0,1.0,69,0.00,,,0.00,Wunderground v.1.15,2013-03-21 11:00:00,
2013-03-21 07:09:00,21.9,13.3,30.04,North,5,1.0,2.0,69,0.00,,,0.00,Wunderground v.1.15,2013-03-21 11:09:00,
2013-03-21 07:20:00,21.7,13.4,30.04,NNW,329,1.0,1.0,70,0.00,,,0.00,Wunderground v.1.15,2013-03-21 11:20:00,
2013-03-21 07:29:00,21.5,13.5,30.04,NNW,342,1.0,3.0,71,0.00,,,0.00,Wunderground v.1.15,2013-03-21 11:29:00,
2013-03-21 07:39:00,21.4,13.5,30.04,NW,312,2.0,2.0,71,0.00,,,0.00,Wunderground v.1.15,2013-03-21 11:39:00,
2013-03-21 07:49:00,21.3,14.0,30.04,North,350,1.0,3.0,73,0.00,,,0.00,Wunderground v.1.15,2013-03-21 11:49:00,
2013-03-21 08:00:00,21.1,14.1,30.05,NW,314,2.0,2.0,74,0.00,,,0.00,Wunderground v.1.15,2013-03-21 12:00:00,
2013-03-21 08:09:00,21.2,15.7,30.05,NNW,327,2.0,2.0,79,0.00,,,0.00,Wunderground v.1.15,2013-03-21 12:09:00,
2013-03-21 08:19:00,21.3,15.8,30.06,NNW,329,2.0,2.0,79,0.00,,,0.00,Wunderground v.1.15,2013-03-21 12:19:00,
2013-03-21 08:30:00,21.5,16.0,30.07,NNE,16,2.0,2.0,79,0.00,,,0.00,Wunderground v.1.15,2013-03-21 12:30:00,
2013-03-21 08:40:00,21.8,16.0,30.07,NW,321,2.0,2.0,78,0.00,,,0.00,Wunderground v.1.15,2013-03-21 12:40:00,
2013-03-21 08:49:00,22.0,15.9,30.07,NW,321,2.0,2.0,77,0.00,,,0.00,Wunderground v.1.15,2013-03-21 12:49:00,
2013-03-21 09:00:00,22.6,15.6,30.07,NE,39,3.0,3.0,74,0.00,,,0.00,Wunderground v.1.15,2013-03-21 13:00:00,
2013-03-21 09:10:00,23.0,15.0,30.07,NW,319,3.0,4.0,71,0.00,,,0.00,Wunderground v.1.15,2013-03-21 13:10:00,
2013-03-21 09:19:00,22.9,14.2,30.08,NNE,15,4.0,4.0,69,0.00,,,0.00,Wunderground v.1.15,2013-03-21 13:19:00,
2013-03-21 09:29:00,22.8,14.5,30.08,NW,319,4.0,4.0,70,0.00,,,0.00,Wunderground v.1.15,2013-03-21 13:29:00,
2013-03-21 09:39:00,23.4,14.0,30.08,North,349,4.0,7.0,67,0.00,,,0.00,Wunderground v.1.15,2013-03-21 13:39:00,
2013-03-21 09:50:00,23.4,14.0,30.08,NNE,28,4.0,4.0,67,0.00,,,0.00,Wunderground v.1.15,2013-03-21 13:50:00,
2013-03-21 10:00:00,23.7,12.9,30.09,North,360,4.0,7.0,63,0.00,,,0.00,Wunderground v.1.15,2013-03-21 14:00:00,
2013-03-21 10:09:00,24.8,13.6,30.09,ENE,75,3.0,8.0,62,0.00,,,0.00,Wunderground v.1.15,2013-03-21 14:09:00,
2013-03-21 10:19:00,25.3,13.7,30.09,NNW,338,4.0,4.0,61,0.00,,,0.00,Wunderground v.1.15,2013-03-21 14:19:00,
2013-03-21 10:30:00,25.2,12.1,30.09,NNE,12,3.0,3.0,57,0.00,,,0.00,Wunderground v.1.15,2013-03-21 14:30:00,
2013-03-21 10:40:00,25.8,13.4,30.09,North,5,3.0,4.0,59,0.00,,,0.00,Wunderground v.1.15,2013-03-21 14:40:00,
2013-03-21 10:50:00,25.9,14.7,30.09,NW,322,4.0,4.0,62,0.00,,,0.00,Wunderground v.1.15,2013-03-21 14:50:00,
2013-03-21 11:00:00,25.3,13.7,30.09,NW,320,4.0,6.0,61,0.00,,,0.00,Wunderground v.1.15,2013-03-21 15:00:00,
2013-03-21 11:09:00,24.7,11.6,30.09,NNW,335,3.0,3.0,57,0.00,,,0.00,Wunderground v.1.15,2013-03-21 15:09:00,
2013-03-21 11:20:00,25.5,12.8,30.09,NE,38,2.0,2.0,58,0.00,,,0.00,Wunderground v.1.15,2013-03-21 15:20:00,
2013-03-21 11:30:00,26.2,10.9,30.10,NNW,338,3.0,3.0,52,0.00,,,0.00,Wunderground v.1.15,2013-03-21 15:30:00,
2013-03-21 11:39:00,26.7,10.5,30.10,East,93,4.0,4.0,50,0.00,,,0.00,Wunderground v.1.15,2013-03-21 15:39:00,
2013-03-21 11:49:00,27.1,11.3,30.10,NE,53,3.0,3.0,51,0.00,,,0.00,Wunderground v.1.15,2013-03-21 15:49:00,
2013-03-21 12:00:00,28.4,12.6,30.10,NE,43,2.0,5.0,51,0.00,,,0.00,Wunderground v.1.15,2013-03-21 16:00:00,
2013-03-21 12:10:00,28.8,13.4,30.10,NW,306,3.0,3.0,52,0.00,,,0.00,Wunderground v.1.15,2013-03-21 16:10:00,
2013-03-21 12:19:00,28.2,12.4,30.09,NNW,333,3.0,3.0,51,0.00,,,0.00,Wunderground v.1.15,2013-03-21 16:19:00,
2013-03-21 12:29:00,28.9,13.9,30.10,NE,55,2.0,5.0,53,0.00,,,0.00,Wunderground v.1.15,2013-03-21 16:29:00,
2013-03-21 12:39:00,29.0,13.1,30.10,ENE,71,3.0,3.0,51,0.00,,,0.00,Wunderground v.1.15,2013-03-21 16:39:00,
2013-03-21 12:50:00,28.5,11.7,30.09,NNW,348,3.0,4.0,49,0.00,,,0.00,Wunderground v.1.15,2013-03-21 16:50:00,
2013-03-21 13:00:00,28.7,11.9,30.09,North,355,3.0,3.0,49,0.00,,,0.00,Wunderground v.1.15,2013-03-21 17:00:00,
2013-03-21 13:09:00,29.8,13.4,30.09,WNW,291,3.0,3.0,50,0.00,,,0.00,Wunderground v.1.15,2013-03-21 17:09:00,
2013-03-21 13:20:00,30.2,13.3,30.09,NNW,339,3.0,6.0,49,0.00,,,0.00,Wunderground v.1.15,2013-03-21 17:20:00,
2013-03-21 13:30:00,31.0,12.6,30.09,ENE,77,3.0,3.0,46,0.00,,,0.00,Wunderground v.1.15,2013-03-21 17:30:00,
2013-03-21 13:39:00,31.4,12.0,30.09,North,350,3.0,3.0,44,0.00,,,0.00,Wunderground v.1.15,2013-03-21 17:39:00,
2013-03-21 13:49:00,31.1,11.2,30.09,SSE,155,2.0,2.0,43,0.00,,,0.00,Wunderground v.1.15,2013-03-21 17:49:00,
2013-03-21 14:00:00,31.2,11.8,30.08,SSE,154,2.0,2.0,44,0.00,,,0.00,Wunderground v.1.15,2013-03-21 18:00:00,
2013-03-21 14:10:00,32.6,14.1,30.08,North,350,2.0,2.0,46,0.00,,,0.00,Wunderground v.1.15,2013-03-21 18:10:00,
2013-03-21 14:19:00,31.9,11.9,30.08,North,11,3.0,3.0,43,0.00,,,0.00,Wunderground v.1.15,2013-03-21 18:19:00,
2013-03-21 14:29:00,32.1,12.1,30.08,WNW,288,3.0,3.0,43,0.00,,,0.00,Wunderground v.1.15,2013-03-21 18:29:00,
2013-03-21 14:39:00,32.7,12.6,30.07,ENE,74,2.0,4.0,43,0.00,,,0.00,Wunderground v.1.15,2013-03-21 18:39:00,
2013-03-21 14:50:00,33.6,11.8,30.07,ENE,76,2.0,2.0,40,0.00,,,0.00,Wunderground v.1.15,2013-03-21 18:50:00,
2013-03-21 15:00:00,33.7,11.3,30.07,ENE,73,3.0,3.0,39,0.00,,,0.00,Wunderground v.1.15,2013-03-21 19:00:00,
2013-03-21 15:10:00,33.9,12.1,30.06,NNE,31,3.0,4.0,40,0.00,,,0.00,Wunderground v.1.15,2013-03-21 19:10:00,
2013-03-21 15:20:00,33.8,12.0,30.06,North,11,3.0,3.0,40,0.00,,,0.00,Wunderground v.1.15,2013-03-21 19:20:00,
2013-03-21 15:29:00,33.9,11.5,30.05,ESE,109,3.0,3.0,39,0.00,,,0.00,Wunderground v.1.15,2013-03-21 19:29:00,
2013-03-21 15:39:00,34.7,12.2,30.05,NW,317,2.0,4.0,39,0.00,,,0.00,Wunderground v.1.15,2013-03-21 19:39:00,
2013-03-21 15:49:00,34.4,12.0,30.05,WSW,238,3.0,4.0,39,0.00,,,0.00,Wunderground v.1.15,2013-03-21 19:49:00,
2013-03-21 16:00:00,34.3,13.0,30.04,WSW,247,3.0,3.0,41,0.00,,,0.00,Wunderground v.1.15,2013-03-21 20:00:00,
2013-03-21 16:09:00,35.1,13.2,30.04,SSE,159,2.0,3.0,40,0.00,,,0.00,Wunderground v.1.15,2013-03-21 20:09:00,
2013-03-21 16:19:00,35.0,12.5,30.04,SSE,157,3.0,3.0,39,0.00,,,0.00,Wunderground v.1.15,2013-03-21 20:19:00,
2013-03-21 16:29:00,35.5,13.0,30.03,ENE,69,2.0,2.0,39,0.00,,,0.00,Wunderground v.1.15,2013-03-21 20:29:00,
2013-03-21 16:40:00,36.4,14.3,30.03,SSE,162,2.0,4.0,40,0.00,,,0.00,Wunderground v.1.15,2013-03-21 20:40:00,
2013-03-21 16:49:00,36.7,12.8,30.03,ENE,78,2.0,2.0,37,0.00,,,0.00,Wunderground v.1.15,2013-03-21 20:49:00,
2013-03-21 17:00:00,36.0,12.2,30.03,SE,140,3.0,3.0,37,0.00,,,0.00,Wunderground v.1.15,2013-03-21 21:00:00,
2013-03-21 17:10:00,35.6,12.5,30.02,SW,222,4.0,4.0,38,0.00,,,0.00,Wunderground v.1.15,2013-03-21 21:10:00,
2013-03-21 17:19:00,36.0,12.2,30.02,SSE,161,3.0,3.0,37,0.00,,,0.00,Wunderground v.1.15,2013-03-21 21:19:00,
2013-03-21 17:29:00,36.7,14.6,30.02,ENE,71,2.0,2.0,40,0.00,,,0.00,Wunderground v.1.15,2013-03-21 21:29:00,
2013-03-21 17:39:00,37.4,14.1,30.02,NNE,13,2.0,2.0,38,0.00,,,0.00,Wunderground v.1.15,2013-03-21 21:39:00,
2013-03-21 17:50:00,37.4,12.8,30.02,SSE,150,1.0,2.0,36,0.00,,,0.00,Wunderground v.1.15,2013-03-21 21:50:00,
2013-03-21 18:00:00,36.3,13.1,30.02,SW,224,3.0,3.0,38,0.00,,,0.00,Wunderground v.1.15,2013-03-21 22:00:00,
2013-03-21 18:09:00,37.5,14.2,30.02,NW,314,2.0,2.0,38,0.00,,,0.00,Wunderground v.1.15,2013-03-21 22:09:00,
2013-03-21 18:19:00,36.6,12.1,30.02,North,11,4.0,4.0,36,0.00,,,0.00,Wunderground v.1.15,2013-03-21 22:19:00,
2013-03-21 18:30:00,36.4,12.6,30.01,NNE,27,2.0,2.0,37,0.00,,,0.00,Wunderground v.1.15,2013-03-21 22:30:00,
2013-03-21 18:39:00,36.6,14.5,30.02,NNW,331,1.0,2.0,40,0.00,,,0.00,Wunderground v.1.15,2013-03-21 22:39:00,
2013-03-21 18:49:00,36.8,12.9,30.01,East,86,1.0,1.0,37,0.00,,,0.00,Wunderground v.1.15,2013-03-21 22:49:00,
2013-03-21 19:00:00,36.6,12.7,30.01,ENE,65,0.0,0.0,37,0.00,,,0.00,Wunderground v.1.15,2013-03-21 23:00:00,
2013-03-21 19:10:00,36.3,13.1,30.02,ENE,65,1.0,1.0,38,0.00,,,0.00,Wunderground v.1.15,2013-03-21 23:10:00,
2013-03-21 19:19:00,35.9,14.5,30.02,NNE,30,1.0,1.0,41,0.00,,,0.00,Wunderground v.1.15,2013-03-21 23:19:00,
2013-03-21 19:29:00,35.5,12.4,30.02,NNE,30,0.0,0.0,38,0.00,,,0.00,Wunderground v.1.15,2013-03-21 23:29:00,
2013-03-21 19:39:00,35.3,12.8,30.02,NNE,30,0.0,0.0,39,0.00,,,0.00,Wunderground v.1.15,2013-03-21 23:39:00,
2013-03-21 19:50:00,35.4,14.0,30.03,NNE,30,0.0,0.0,41,0.00,,,0.00,Wunderground v.1.15,2013-03-21 23:50:00,
2013-03-21 20:00:00,35.3,15.5,30.03,NNE,30,0.0,0.0,44,0.00,,,0.00,Wunderground v.1.15,2013-03-22 00:00:00,
2013-03-21 20:09:00,35.4,16.6,30.04,NNE,30,0.0,0.0,46,0.00,,,0.00,Wunderground v.1.15,2013-03-22 00:09:00,
2013-03-21 20:19:00,35.2,13.3,30.04,NNE,30,0.0,0.0,40,0.00,,,0.00,Wunderground v.1.15,2013-03-22 00:19:00,
2013-03-21 20:29:00,34.3,15.1,30.04,NNE,30,0.0,0.0,45,0.00,,,0.00,Wunderground v.1.15,2013-03-22 00:29:00,
2013-03-21 20:40:00,34.0,16.3,30.04,NNE,30,0.0,0.0,48,0.00,,,0.00,Wunderground v.1.15,2013-03-22 00:40:00,
2013-03-21 20:49:00,33.4,14.3,30.04,NNE,30,0.0,0.0,45,0.00,,,0.00,Wunderground v.1.15,2013-03-22 00:49:00,
2013-03-21 21:00:00,31.8,18.3,30.05,NNW,344,1.0,1.0,57,0.00,,,0.00,Wunderground v.1.15,2013-03-22 01:00:00,
2013-03-21 21:10:00,31.5,16.3,30.05,NNW,344,0.0,0.0,53,0.00,,,0.00,Wunderground v.1.15,2013-03-22 01:10:00,
2013-03-21 21:20:00,30.9,17.0,30.05,NNW,344,0.0,0.0,56,0.00,,,0.00,Wunderground v.1.15,2013-03-22 01:20:00,
2013-03-21 21:29:00,30.3,16.5,30.06,NNW,344,0.0,0.0,56,0.00,,,0.00,Wunderground v.1.15,2013-03-22 01:29:00,
2013-03-21 21:39:00,29.6,16.6,30.06,NNW,344,0.0,0.0,58,0.00,,,0.00,Wunderground v.1.15,2013-03-22 01:39:00,
2013-03-21 21:49:00,29.2,18.9,30.06,NNW,344,0.0,0.0,65,0.00,,,0.00,Wunderground v.1.15,2013-03-22 01:49:00,
2013-03-21 22:00:00,29.6,20.0,30.06,NNW,344,0.0,0.0,67,0.00,,,0.00,Wunderground v.1.15,2013-03-22 02:00:00,
2013-03-21 22:09:00,29.6,19.6,30.06,NNW,344,0.0,0.0,66,0.00,,,0.00,Wunderground v.1.15,2013-03-22 02:09:00,
2013-03-21 22:19:00,29.3,17.5,30.07,NNW,344,0.0,0.0,61,0.00,,,0.00,Wunderground v.1.15,2013-03-22 02:19:00,
2013-03-21 22:29:00,29.4,18.7,30.07,NNW,344,0.0,0.0,64,0.00,,,0.00,Wunderground v.1.15,2013-03-22 02:29:00,
2013-03-21 22:40:00,29.5,19.5,30.07,NNW,344,0.0,0.0,66,0.00,,,0.00,Wunderground v.1.15,2013-03-22 02:40:00,
2013-03-21 22:50:00,29.0,19.4,30.07,NNW,344,0.0,0.0,67,0.00,,,0.00,Wunderground v.1.15,2013-03-22 02:50:00,
2013-03-21 23:00:00,28.3,20.4,30.07,NNW,344,0.0,0.0,72,0.00,,,0.00,Wunderground v.1.15,2013-03-22 03:00:00,
2013-03-21 23:09:00,28.4,20.5,30.07,NNW,344,0.0,0.0,72,0.00,,,0.00,Wunderground v.1.15,2013-03-22 03:09:00,
2013-03-21 23:20:00,28.1,19.6,30.07,NNW,344,0.0,0.0,70,0.00,,,0.00,Wunderground v.1.15,2013-03-22 03:20:00,
2013-03-21 23:30:00,27.9,19.7,30.07,NNW,344,0.0,0.0,71,0.00,,,0.00,Wunderground v.1.15,2013-03-22 03:30:00,
2013-03-21 23:39:00,28.0,20.8,30.07,NNW,344,0.0,0.0,74,0.00,,,0.00,Wunderground v.1.15,2013-03-22 03:39:00,
2013-03-21 23:49:00,27.6,19.8,30.07,NNW,344,0.0,0.0,72,0.00,,,0.00,Wunderground v.1.15,2013-03-22 03:49:00,